KZ-0010 weather

Iliysk North Airport
Iliysk, Almaty Region, Kazakhstan

Public forecast

Using degrees Celsius for public forecast. Weather courtesy of forecast.io.

Closest aviation weather report (METAR) to Iliysk North Airport

Closest report is Almaty Airport, 39.0 nm (72.3 km) S. Retrieved 2020/01/24 19:30 UTC (0 seconds ago):

UAAA 241930Z 29004MPS 230V330 9999 SCT050 OVC100 07/M05 Q1017 R23R/3///50 R23L/3///45 NOSIG

Closest aviation forecast (TAF) to Iliysk North Airport

Closest forecast is Almaty Airport, 39.0 nm (72.3 km) S. Retrieved 2020/01/24 18:21 UTC (1 hour ago):

TAF UAAA 241700Z 2418/2518 20003G08MPS 3100 BR FU BKN020CB BKN100 TX03/2508Z TNM01/2501Z TEMPO 2418/2422 24007G12MPS TEMPO 2422/2505 1500 -SHRASN BR BKN005 OVC011CB TEMPO 2505/2512 04004MPS BECMG 2512/2513 1500 BR FU BKN011CB OVC100 TEMPO 2512/2518 26003MPS 0400 FZFG VV002